Time;durP1;ratioP1;P1;durP2;ratioP2;P2;SDS_P1;SDS_P2;PMS_P1;PMS_P2;Temp;Humidity;BMP_temperature;BMP_pressure;BME280_temperature;BME280_humidity;BME280_pressure;Samples;Min_cycle;Max_cycle;Signal;HPM_P1;HPM_P2
2022/03/25 00:00:14;;;;;;;53.63;28.33;;;;;;;8.65;50.16;102330.28;5072513;28;20029;-41
2022/03/25 00:02:41;;;;;;;55.58;28.48;;;;;;;8.61;49.44;102328.88;5072630;28;20032;-43
2022/03/25 00:05:07;;;;;;;57.25;29.40;;;;;;;8.65;48.93;102332.97;5073186;28;20067;-43
2022/03/25 00:07:34;;;;;;;59.50;29.95;;;;;;;8.65;48.54;102333.81;5073981;28;20028;-43
2022/03/25 00:10:01;;;;;;;55.03;28.20;;;;;;;8.61;48.74;102339.56;5074143;28;20020;-44
2022/03/25 00:12:26;;;;;;;57.17;30.13;;;;;;;8.58;48.67;102346.06;5072123;28;20396;-42
2022/03/25 00:14:52;;;;;;;55.50;28.90;;;;;;;8.61;48.40;102337.75;5072429;28;20115;-43
2022/03/25 00:17:18;;;;;;;48.58;27.55;;;;;;;8.57;49.13;102346.19;5073413;28;20108;-42
2022/03/25 00:19:44;;;;;;;63.45;29.70;;;;;;;8.37;49.65;102323.78;5073103;28;20066;-43
2022/03/25 00:22:10;;;;;;;56.10;28.38;;;;;;;8.35;49.95;102326.59;5073123;28;20068;-43
2022/03/25 00:24:35;;;;;;;51.45;27.40;;;;;;;8.29;48.89;102346.72;5073068;28;20089;-45
2022/03/25 00:27:01;;;;;;;49.85;26.77;;;;;;;8.25;48.75;102337.25;5071736;28;20036;-44
2022/03/25 00:29:27;;;;;;;53.42;29.92;;;;;;;8.28;50.29;102350.38;5072709;28;20431;-44
2022/03/25 00:31:53;;;;;;;63.35;30.02;;;;;;;8.17;50.53;102330.84;5073114;28;20033;-43
2022/03/25 00:34:19;;;;;;;54.50;27.00;;;;;;;8.11;50.00;102340.25;5075568;28;20047;-46
2022/03/25 00:36:44;;;;;;;61.10;31.25;;;;;;;7.96;50.37;102337.06;5076490;28;20509;-44
2022/03/25 00:39:10;;;;;;;57.50;27.27;;;;;;;7.96;50.57;102347.75;5075134;28;20024;-45
2022/03/25 00:41:37;;;;;;;58.85;29.85;;;;;;;7.89;51.39;102343.91;5075104;28;20044;-42
2022/03/25 00:44:05;;;;;;;56.22;27.88;;;;;;;7.89;51.22;102343.91;5076740;28;20530;-42
2022/03/25 00:46:31;;;;;;;56.80;28.75;;;;;;;7.71;51.04;102351.66;5075157;28;20032;-43
2022/03/25 00:48:57;;;;;;;50.55;27.20;;;;;;;7.67;51.25;102335.03;5075332;28;20473;-42
2022/03/25 00:51:23;;;;;;;52.53;27.63;;;;;;;7.63;49.83;102332.72;5076473;28;20036;-43
2022/03/25 00:53:48;;;;;;;60.90;29.30;;;;;;;7.72;51.31;102351.53;5076433;28;20048;-42
2022/03/25 00:56:14;;;;;;;59.50;29.17;;;;;;;7.60;51.39;102349.88;5075302;28;20055;-43
2022/03/25 00:58:40;;;;;;;60.33;30.50;;;;;;;7.66;51.23;102354.72;5076632;28;20031;-42
2022/03/25 01:01:06;;;;;;;53.13;26.60;;;;;;;7.63;51.22;102351.44;5076311;28;20032;-44
2022/03/25 01:03:32;;;;;;;59.58;29.05;;;;;;;7.56;51.51;102351.97;5074808;28;20377;-44
2022/03/25 01:05:58;;;;;;;57.08;28.33;;;;;;;7.57;51.70;102342.94;5076262;28;20028;-43
2022/03/25 01:08:24;;;;;;;53.80;27.63;;;;;;;7.57;51.82;102353.63;5091707;28;20389;-44
2022/03/25 01:10:49;;;;;;;60.28;27.80;;;;;;;7.45;51.35;102337.81;5075828;28;20033;-47
2022/03/25 01:13:15;;;;;;;62.40;30.00;;;;;;;7.49;51.50;102355.28;5076045;28;20032;-44
2022/03/25 01:15:41;;;;;;;66.07;32.13;;;;;;;7.44;51.49;102358.31;5074948;28;20445;-45
2022/03/25 01:18:07;;;;;;;54.53;28.30;;;;;;;7.41;50.63;102347.03;5074981;28;20036;-44
2022/03/25 01:20:33;;;;;;;60.92;32.20;;;;;;;7.34;52.29;102354.72;5076019;28;20408;-50
2022/03/25 01:22:59;;;;;;;53.05;27.85;;;;;;;7.23;51.08;102336.03;5077237;28;20399;-42
2022/03/25 01:25:25;;;;;;;54.67;29.35;;;;;;;7.24;51.48;102332.38;5076830;28;20025;-41
2022/03/25 01:27:51;;;;;;;60.00;31.48;;;;;;;7.19;52.68;102332.75;5076269;28;20488;-44
2022/03/25 01:30:17;;;;;;;60.28;29.90;;;;;;;7.19;52.13;102343.44;5079027;28;20043;-42
2022/03/25 01:32:43;;;;;;;55.45;27.77;;;;;;;7.16;52.33;102344.53;5080608;28;20028;-44
2022/03/25 01:35:09;;;;;;;64.00;30.60;;;;;;;7.05;52.82;102344.56;5079247;28;20376;-42
2022/03/25 01:37:36;;;;;;;59.95;30.77;;;;;;;7.04;53.46;102347.34;5058731;28;20036;-43
2022/03/25 01:40:05;;;;;;;60.25;30.33;;;;;;;7.11;52.61;102365.44;5074303;28;20553;-45
2022/03/25 01:42:31;;;;;;;65.07;31.52;;;;;;;6.96;52.32;102340.81;5074716;28;20029;-45
2022/03/25 01:44:57;;;;;;;61.17;31.52;;;;;;;6.95;53.42;102351.63;5075627;28;20025;-43
2022/03/25 01:47:28;;;;;;;55.10;28.60;;;;;;;6.95;53.07;102355.13;5091775;28;20036;-45
2022/03/25 01:49:55;;;;;;;54.15;27.13;;;;;;;6.91;52.63;102350.16;5073784;28;20024;-43
2022/03/25 01:52:21;;;;;;;66.47;30.90;;;;;;;6.91;52.62;102339.47;5074520;28;20032;-44
2022/03/25 01:54:46;;;;;;;62.47;30.65;;;;;;;6.87;53.44;102346.91;5075695;28;20048;-44
2022/03/25 01:57:12;;;;;;;59.95;29.90;;;;;;;6.72;53.12;102338.28;5075862;28;20063;-43
2022/03/25 01:59:38;;;;;;;55.25;28.42;;;;;;;6.70;53.12;102347.38;5091168;28;20093;-44
2022/03/25 02:02:05;;;;;;;61.13;30.77;;;;;;;6.70;52.84;102347.38;5073832;28;20112;-44
2022/03/25 02:04:31;;;;;;;61.90;29.65;;;;;;;6.65;53.37;102342.41;5075105;28;20039;-43
2022/03/25 02:06:57;;;;;;;56.25;28.70;;;;;;;6.63;52.72;102344.38;5073977;28;20032;-42
2022/03/25 02:09:25;;;;;;;65.72;31.95;;;;;;;6.57;53.14;102342.16;5074750;28;20029;-44
2022/03/25 02:11:51;;;;;;;70.47;32.88;;;;;;;6.50;54.10;102338.28;5074832;28;20059;-43
2022/03/25 02:14:17;;;;;;;61.65;29.55;;;;;;;6.54;53.75;102347.75;5073403;28;20099;-43
2022/03/25 02:16:45;;;;;;;66.43;31.23;;;;;;;6.49;54.53;102345.44;5074626;28;20059;-45
2022/03/25 02:19:13;;;;;;;57.80;28.00;;;;;;;6.43;54.17;102342.41;5073764;28;20060;-44
2022/03/25 02:21:40;;;;;;;61.45;32.03;;;;;;;6.41;54.54;102342.53;5074934;28;20532;-44
2022/03/25 02:24:08;;;;;;;70.80;34.60;;;;;;;6.36;54.07;102337.53;5074346;28;20029;-44
2022/03/25 02:26:36;;;;;;;61.13;32.25;;;;;;;6.25;54.09;102334.84;5074612;28;20473;-43
2022/03/25 02:29:04;;;;;;;60.22;29.98;;;;;;;6.33;54.20;102344.94;5075188;28;20036;-45
2022/03/25 02:31:30;;;;;;;71.05;32.10;;;;;;;6.27;54.35;102345.41;5073388;28;20021;-43
2022/03/25 02:34:00;;;;;;;62.65;28.75;;;;;;;6.24;54.02;102342.97;5075011;28;20033;-43
2022/03/25 02:36:26;;;;;;;62.05;31.08;;;;;;;6.21;54.25;102346.75;5075121;28;20025;-43
2022/03/25 02:38:52;;;;;;;59.95;30.08;;;;;;;6.05;54.97;102319.53;5057016;28;20025;-43
2022/03/25 02:41:18;;;;;;;64.78;31.92;;;;;;;6.06;54.09;102330.09;5073560;28;20154;-42
2022/03/25 02:43:44;;;;;;;61.42;29.80;;;;;;;6.12;54.80;102342.13;5074673;28;20032;-41
2022/03/25 02:46:10;;;;;;;65.57;29.92;;;;;;;6.04;54.82;102336.53;5074800;28;20054;-42
2022/03/25 02:48:36;;;;;;;64.78;31.42;;;;;;;6.01;54.54;102337.59;5074494;28;20033;-42
2022/03/25 02:51:03;;;;;;;62.40;29.92;;;;;;;5.93;55.34;102330.16;5074251;28;20035;-41
2022/03/25 02:53:29;;;;;;;63.33;31.67;;;;;;;5.95;54.51;102338.03;5074315;28;20052;-41
2022/03/25 02:55:56;;;;;;;69.57;31.38;;;;;;;5.92;54.90;102336.44;5074164;28;20091;-43
2022/03/25 02:58:22;;;;;;;68.22;32.25;;;;;;;5.88;55.02;102344.81;5073103;28;20055;-42
2022/03/25 03:00:48;;;;;;;74.80;31.65;;;;;;;5.88;55.89;102334.97;5074226;28;20379;-43
2022/03/25 03:03:14;;;;;;;68.85;32.55;;;;;;;5.90;55.78;102338.38;5074312;28;20032;-42
2022/03/25 03:05:40;;;;;;;59.65;30.02;;;;;;;5.92;54.96;102339.09;5072609;28;20766;-47
2022/03/25 03:08:06;;;;;;;68.35;33.92;;;;;;;5.75;55.27;102335.06;5072832;28;20485;-48
2022/03/25 03:10:32;;;;;;;69.40;33.67;;;;;;;5.70;56.77;102336.38;5074158;28;20037;-46
2022/03/25 03:12:59;;;;;;;69.80;33.50;;;;;;;5.60;55.05;102341.56;5072618;28;20346;-47
2022/03/25 03:15:25;;;;;;;69.38;32.78;;;;;;;5.55;55.55;102346.38;5073826;28;20032;-45
2022/03/25 03:17:51;;;;;;;63.58;30.75;;;;;;;5.50;56.19;102337.84;5074014;28;20025;-43
2022/03/25 03:20:20;;;;;;;58.25;30.17;;;;;;;5.60;56.00;102344.22;5072501;28;20024;-42
2022/03/25 03:22:46;;;;;;;74.85;34.30;;;;;;;5.45;55.93;102342.69;5073678;28;20040;-43
2022/03/25 03:25:12;;;;;;;65.93;32.17;;;;;;;5.44;55.84;102344.50;5072609;28;20035;-43
2022/03/25 03:27:38;;;;;;;65.28;32.95;;;;;;;5.43;56.27;102348.97;5073693;28;20028;-42
2022/03/25 03:30:08;;;;;;;67.68;32.08;;;;;;;5.35;57.60;102355.81;5074028;28;20035;-42
2022/03/25 03:32:35;;;;;;;81.88;35.50;;;;;;;5.24;57.60;102344.16;5055894;28;20052;-42
2022/03/25 03:35:01;;;;;;;74.57;36.20;;;;;;;5.31;56.58;102349.91;5072240;28;20356;-43
2022/03/25 03:37:27;;;;;;;63.80;31.95;;;;;;;5.23;56.23;102349.59;5072688;28;20533;-43
2022/03/25 03:39:53;;;;;;;63.80;29.77;;;;;;;5.13;57.13;102333.44;5073636;28;20477;-43
2022/03/25 03:42:19;;;;;;;55.67;27.30;;;;;;;5.30;56.54;102353.53;5074435;28;20086;-42
2022/03/25 03:44:45;;;;;;;64.10;29.58;;;;;;;5.21;56.29;102335.53;5073697;28;20457;-44
2022/03/25 03:47:11;;;;;;;69.45;30.38;;;;;;;5.21;56.10;102348.84;5073882;28;20116;-45
2022/03/25 03:49:38;;;;;;;63.38;29.63;;;;;;;5.13;56.72;102336.09;5073890;28;20052;-45
2022/03/25 03:52:05;;;;;;;72.82;33.90;;;;;;;5.16;57.82;102335.91;5074385;28;20434;-42
2022/03/25 03:54:32;;;;;;;75.45;33.95;;;;;;;5.08;56.86;102340.91;5073057;28;20397;-41
2022/03/25 03:56:58;;;;;;;71.50;35.25;;;;;;;4.86;57.09;102349.59;5074057;28;20024;-43
2022/03/25 03:59:25;;;;;;;69.43;33.25;;;;;;;4.83;58.47;102347.16;5073989;28;20024;-42
2022/03/25 04:01:51;;;;;;;69.25;33.67;;;;;;;4.73;57.30;102328.31;5073886;28;20107;-44
2022/03/25 04:04:17;;;;;;;68.55;31.88;;;;;;;4.82;58.34;102340.97;5073751;28;20421;-42
2022/03/25 04:06:44;;;;;;;68.80;33.33;;;;;;;4.85;58.03;102353.22;5055906;28;20025;-41
2022/03/25 04:09:10;;;;;;;74.85;33.78;;;;;;;4.85;58.21;102354.06;5075843;28;20121;-42
2022/03/25 04:11:36;;;;;;;62.40;30.25;;;;;;;4.79;57.97;102338.53;5076001;28;20028;-41
2022/03/25 04:14:02;;;;;;;67.85;33.22;;;;;;;4.82;58.87;102354.28;5075726;28;20082;-42
2022/03/25 04:16:30;;;;;;;80.28;35.45;;;;;;;4.67;57.72;102349.22;5076028;28;20041;-42
2022/03/25 04:18:57;;;;;;;79.88;35.17;;;;;;;4.73;57.91;102362.06;5075982;28;20029;-42
2022/03/25 04:21:23;;;;;;;71.78;34.30;;;;;;;4.73;59.16;102364.75;5076512;28;20424;-42
2022/03/25 04:23:49;;;;;;;73.30;32.67;;;;;;;4.69;58.52;102363.25;5077033;28;20142;-42
2022/03/25 04:26:15;;;;;;;67.10;30.67;;;;;;;4.70;58.32;102365.81;5075964;28;20119;-42
2022/03/25 04:28:41;;;;;;;67.95;32.83;;;;;;;4.66;58.76;102361.66;5077322;28;20081;-45
2022/03/25 04:31:07;;;;;;;68.07;33.90;;;;;;;4.70;58.60;102365.81;5077211;28;20036;-43
2022/03/25 04:33:34;;;;;;;67.68;32.25;;;;;;;4.59;59.58;102357.75;5076258;28;20025;-44
2022/03/25 04:36:01;;;;;;;60.78;29.13;;;;;;;4.62;59.10;102366.34;5077417;28;20107;-43
2022/03/25 04:38:27;;;;;;;58.60;30.52;;;;;;;4.54;59.46;102375.81;5076226;28;20028;-42
2022/03/25 04:40:53;;;;;;;70.80;32.85;;;;;;;4.51;59.36;102368.03;5077447;28;20114;-42
2022/03/25 04:43:19;;;;;;;71.15;31.67;;;;;;;4.58;58.56;102377.31;5075810;28;20064;-42
2022/03/25 04:45:44;;;;;;;72.35;31.98;;;;;;;4.65;59.29;102382.09;5092411;28;20113;-42
2022/03/25 04:48:11;;;;;;;69.65;32.88;;;;;;;4.37;59.41;102375.19;5076418;28;20431;-42
2022/03/25 04:50:38;;;;;;;63.83;31.38;;;;;;;4.50;59.38;102391.16;5092592;28;20032;-43
2022/03/25 04:53:06;;;;;;;77.88;34.70;;;;;;;4.46;60.02;102379.88;5076978;28;20024;-46
2022/03/25 04:55:32;;;;;;;74.20;33.33;;;;;;;4.46;58.84;102387.00;5075748;28;20040;-43
2022/03/25 04:57:57;;;;;;;70.13;33.65;;;;;;;4.31;59.72;102377.41;5058475;28;20025;-42
2022/03/25 05:00:23;;;;;;;76.65;34.50;;;;;;;4.30;59.76;102381.88;5077966;28;20105;-42
2022/03/25 05:02:49;;;;;;;75.05;33.70;;;;;;;4.31;59.50;102396.00;5075455;28;20115;-42
2022/03/25 05:05:15;;;;;;;75.95;35.97;;;;;;;4.29;60.76;102390.81;5076166;28;20449;-41
2022/03/25 05:07:43;;;;;;;69.97;34.13;;;;;;;4.26;61.63;102391.03;5076097;28;20044;-43
2022/03/25 05:10:11;;;;;;;77.07;34.03;;;;;;;4.34;59.81;102387.84;5076379;28;20028;-42
2022/03/25 05:12:38;;;;;;;73.00;32.80;;;;;;;4.28;60.20;102388.28;5076162;28;20032;-43
2022/03/25 05:15:05;;;;;;;78.43;34.80;;;;;;;4.00;61.10;102385.66;5076719;28;20054;-41
2022/03/25 05:17:31;;;;;;;74.63;33.58;;;;;;;4.12;60.03;102407.91;5076940;28;20042;-41
2022/03/25 05:19:56;;;;;;;64.00;30.05;;;;;;;4.12;59.97;102401.75;5075405;28;20032;-43
2022/03/25 05:22:22;;;;;;;81.20;34.50;;;;;;;4.08;60.65;102407.25;5076573;28;20108;-42
2022/03/25 05:24:48;;;;;;;75.75;35.15;;;;;;;4.24;59.82;102411.56;5075955;28;20384;-42
2022/03/25 05:27:17;;;;;;;79.35;36.60;;;;;;;4.22;60.34;102413.47;5075848;28;20084;-42
2022/03/25 05:29:43;;;;;;;77.93;34.78;;;;;;;4.18;60.19;102409.28;5076062;28;20093;-42
2022/03/25 05:32:09;;;;;;;67.65;30.17;;;;;;;4.12;60.13;102412.38;5075863;28;20103;-42
2022/03/25 05:34:35;;;;;;;75.20;33.30;;;;;;;4.17;60.34;102405.78;5076482;28;20036;-42
2022/03/25 05:37:01;;;;;;;74.32;33.55;;;;;;;4.04;60.94;102412.91;5075997;28;20035;-43
2022/03/25 05:39:27;;;;;;;71.85;32.75;;;;;;;4.08;60.40;102412.56;5076069;28;20024;-42
2022/03/25 05:41:53;;;;;;;70.28;30.90;;;;;;;4.03;60.53;102417.38;5091595;28;20123;-41
2022/03/25 05:44:19;;;;;;;66.88;31.15;;;;;;;3.89;61.22;102409.44;5076074;28;20365;-41
2022/03/25 05:46:46;;;;;;;73.18;33.22;;;;;;;3.83;61.37;102417.84;5074989;28;20377;-43
2022/03/25 05:49:12;;;;;;;77.30;31.15;;;;;;;3.90;61.21;102416.50;5075837;28;20126;-44
2022/03/25 05:51:37;;;;;;;76.93;34.35;;;;;;;3.87;61.23;102406.91;5040986;28;20464;-42
2022/03/25 05:54:06;;;;;;;70.55;33.15;;;;;;;3.87;61.10;102412.22;5091751;28;20480;-42
2022/03/25 05:56:32;;;;;;;67.22;32.42;;;;;;;3.86;61.85;102415.84;5073855;28;20037;-42
2022/03/25 05:58:58;;;;;;;71.07;32.38;;;;;;;3.88;61.02;102415.72;5075665;28;20032;-43
2022/03/25 06:01:24;;;;;;;73.68;35.42;;;;;;;3.88;61.89;102423.69;5057424;28;20085;-43
2022/03/25 06:03:50;;;;;;;76.22;35.38;;;;;;;3.82;61.54;102400.19;5074296;28;20106;-42
2022/03/25 06:06:15;;;;;;;71.45;31.92;;;;;;;3.90;61.64;102421.81;5073996;28;20090;-41
2022/03/25 06:08:41;;;;;;;78.88;35.10;;;;;;;3.91;61.89;102409.34;5075155;28;20461;-43
2022/03/25 06:11:07;;;;;;;70.78;31.95;;;;;;;3.92;62.37;102419.00;5074315;28;20025;-41
2022/03/25 06:13:33;;;;;;;71.85;32.38;;;;;;;3.94;61.99;102417.09;5074331;28;20027;-42
2022/03/25 06:15:59;;;;;;;69.90;31.60;;;;;;;3.90;62.12;102424.47;5075101;28;20107;-45
2022/03/25 06:18:25;;;;;;;76.88;35.28;;;;;;;3.90;62.03;102410.28;5074740;28;20115;-42
2022/03/25 06:20:50;;;;;;;78.82;34.95;;;;;;;3.93;62.73;102424.25;5074105;28;20101;-42
2022/03/25 06:23:16;;;;;;;75.75;35.63;;;;;;;3.94;62.60;102419.75;5075018;28;20040;-42
2022/03/25 06:25:42;;;;;;;76.20;33.20;;;;;;;4.00;62.02;102428.19;5074191;28;20024;-42
2022/03/25 06:28:11;;;;;;;67.88;32.25;;;;;;;4.03;62.67;102428.00;5074515;28;20040;-43
2022/03/25 06:30:39;;;;;;;80.85;34.65;;;;;;;4.07;63.17;102432.16;5074849;28;20036;-42
2022/03/25 06:33:07;;;;;;;68.53;31.50;;;;;;;4.09;62.11;102434.72;5075058;28;20055;-42
2022/03/25 06:35:33;;;;;;;79.35;35.33;;;;;;;4.16;62.25;102435.13;5074843;28;20500;-45
2022/03/25 06:37:59;;;;;;;87.15;38.42;;;;;;;4.02;62.16;102433.41;5074647;28;20036;-43
2022/03/25 06:40:25;;;;;;;76.95;33.05;;;;;;;4.13;61.88;102452.16;5074289;28;20047;-43
2022/03/25 06:42:54;;;;;;;69.75;30.88;;;;;;;4.21;61.69;102444.50;5074788;28;20082;-43
2022/03/25 06:45:20;;;;;;;69.53;30.20;;;;;;;4.23;62.48;102447.94;5074315;28;20032;-45
2022/03/25 06:47:46;;;;;;;64.03;29.63;;;;;;;4.25;61.91;102440.72;5074930;28;20106;-44
2022/03/25 06:50:15;;;;;;;91.90;38.13;;;;;;;4.41;62.21;102456.47;5090418;28;20075;-44
2022/03/25 06:52:41;;;;;;;83.43;36.00;;;;;;;4.45;61.86;102451.78;5074880;28;20115;-44
2022/03/25 06:55:08;;;;;;;83.00;32.95;;;;;;;4.41;61.93;102453.81;5074437;28;20049;-45
2022/03/25 06:57:34;;;;;;;81.40;33.60;;;;;;;4.49;61.83;102458.59;5074996;28;20094;-44
2022/03/25 07:00:01;;;;;;;81.05;35.60;;;;;;;4.56;61.65;102457.22;5073002;28;20453;-43
2022/03/25 07:02:27;;;;;;;72.65;31.77;;;;;;;4.60;61.11;102448.06;5074200;28;20043;-43
2022/03/25 07:04:53;;;;;;;80.82;36.05;;;;;;;4.65;61.59;102451.28;5074343;28;20029;-43
2022/03/25 07:07:25;;;;;;;83.22;36.40;;;;;;;4.58;62.17;102459.78;5074580;28;20048;-43
2022/03/25 07:09:51;;;;;;;75.43;35.67;;;;;;;4.65;62.50;102458.41;5074195;28;20060;-42
2022/03/25 07:12:18;;;;;;;82.90;37.20;;;;;;;4.78;62.49;102459.28;5074742;28;20356;-42
2022/03/25 07:14:44;;;;;;;81.35;34.72;;;;;;;4.88;61.72;102467.47;5074474;28;20032;-45
2022/03/25 07:17:09;;;;;;;83.65;36.00;;;;;;;4.91;61.28;102466.41;5089969;28;20028;-43
2022/03/25 07:19:35;;;;;;;61.42;30.70;;;;;;;5.04;61.16;102480.56;5056600;28;20062;-47
2022/03/25 07:22:01;;;;;;;74.63;34.58;;;;;;;5.10;60.71;102464.16;5074500;28;20040;-46
2022/03/25 07:24:27;;;;;;;79.80;36.60;;;;;;;5.15;60.44;102464.69;5072719;28;20033;-43
2022/03/25 07:26:53;;;;;;;72.35;34.00;;;;;;;5.19;60.57;102463.50;5074198;28;20028;-43
2022/03/25 07:29:19;;;;;;;85.13;34.10;;;;;;;5.38;60.77;102483.50;5074036;28;20050;-42
2022/03/25 07:31:44;;;;;;;78.82;36.80;;;;;;;5.46;61.12;102482.94;5072766;28;20115;-42
2022/03/25 07:34:10;;;;;;;79.32;36.63;;;;;;;5.55;60.17;102490.28;5074718;28;20024;-43
2022/03/25 07:36:36;;;;;;;74.47;34.33;;;;;;;5.51;59.20;102475.47;5072631;28;20503;-42
2022/03/25 07:39:03;;;;;;;79.35;35.35;;;;;;;5.57;59.00;102473.22;5074071;28;20032;-46
2022/03/25 07:41:29;;;;;;;81.18;37.78;;;;;;;5.62;59.64;102484.38;5074199;28;20036;-43
2022/03/25 07:43:55;;;;;;;76.70;34.85;;;;;;;5.76;59.08;102485.22;5074886;28;20111;-43
2022/03/25 07:46:23;;;;;;;75.40;33.90;;;;;;;5.77;60.68;102477.09;5077730;28;20068;-43
2022/03/25 07:48:50;;;;;;;75.18;34.15;;;;;;;5.85;59.36;102476.56;5078273;28;20369;-46
2022/03/25 07:51:15;;;;;;;75.13;34.38;;;;;;;6.00;58.83;102490.59;5077894;28;20028;-43
2022/03/25 07:53:41;;;;;;;89.43;40.17;;;;;;;6.04;59.07;102499.22;5077759;28;20033;-43
2022/03/25 07:56:07;;;;;;;79.45;36.55;;;;;;;6.16;58.40;102493.81;5077459;28;20068;-45
2022/03/25 07:58:32;;;;;;;82.18;35.40;;;;;;;6.24;58.63;102495.06;5060135;28;20113;-43
2022/03/25 08:00:58;;;;;;;64.85;31.27;;;;;;;6.34;58.80;102501.41;5078196;28;20108;-43
2022/03/25 08:03:24;;;;;;;101.95;42.83;;;;;;;6.15;58.87;102449.44;5077856;28;20517;-43
2022/03/25 08:05:51;;;;;;;89.47;39.72;;;;;;;6.49;58.13;102494.06;5077935;28;20039;-42
2022/03/25 08:08:19;;;;;;;89.18;39.70;;;;;;;6.62;57.80;102497.50;5077468;28;20051;-43
2022/03/25 08:10:46;;;;;;;85.93;39.63;;;;;;;6.77;58.21;102509.66;5076198;28;20334;-43
2022/03/25 08:13:12;;;;;;;87.20;38.22;;;;;;;6.85;58.43;102514.41;5077487;28;20411;-42
2022/03/25 08:15:38;;;;;;;76.00;32.78;;;;;;;6.97;57.94;102510.78;5077957;28;20099;-49
2022/03/25 08:18:06;;;;;;;100.65;41.42;;;;;;;7.08;57.65;102517.97;5093726;28;20097;-44
2022/03/25 08:20:37;;;;;;;105.72;44.88;;;;;;;7.20;58.13;102524.16;5077402;28;20032;-42
2022/03/25 08:23:05;;;;;;;93.70;42.03;;;;;;;7.33;57.82;102526.72;5077387;28;20591;-43
2022/03/25 08:28:19;;;;;;;83.30;36.95;;;;;;;7.63;57.16;102527.94;5076271;28;20025;-43
2022/03/25 08:30:46;;;;;;;97.72;42.20;;;;;;;7.74;57.35;102518.09;5078107;28;20043;-42
2022/03/25 08:33:12;;;;;;;107.13;45.63;;;;;;;7.89;57.65;102521.34;5059599;28;20057;-42
2022/03/25 08:35:40;;;;;;;85.60;38.65;;;;;;;8.05;56.37;102525.41;5077714;28;20120;-42
2022/03/25 08:38:07;;;;;;;108.40;47.13;;;;;;;8.24;56.08;102530.09;5078195;28;20034;-41
2022/03/25 08:40:35;;;;;;;99.78;45.40;;;;;;;8.41;56.18;102528.69;5079891;28;20025;-41
2022/03/25 08:43:03;;;;;;;93.05;42.72;;;;;;;8.57;56.45;102529.13;5079991;28;20028;-41
2022/03/25 08:45:29;;;;;;;81.72;38.92;;;;;;;8.70;55.28;102515.56;5078082;28;20103;-41
2022/03/25 08:47:55;;;;;;;112.28;44.40;;;;;;;8.94;55.31;102519.81;5079245;28;20480;-41
2022/03/25 08:50:22;;;;;;;100.93;43.60;;;;;;;9.18;55.02;102530.22;5077924;28;20028;-42
2022/03/25 08:52:49;;;;;;;104.20;46.55;;;;;;;9.34;55.23;102519.00;5076655;28;20123;-41
2022/03/25 08:55:16;;;;;;;104.95;46.72;;;;;;;9.54;53.83;102520.75;5075241;28;20044;-43
2022/03/25 08:57:43;;;;;;;88.18;40.03;;;;;;;9.70;53.86;102512.22;5076869;28;20071;-44
2022/03/25 09:00:11;;;;;;;77.40;37.42;;;;;;;10.01;53.83;102522.84;5076261;28;20060;-42
2022/03/25 09:02:38;;;;;;;93.68;40.65;;;;;;;10.26;53.12;102518.78;5075318;28;20493;-42
2022/03/25 09:05:05;;;;;;;85.22;40.65;;;;;;;10.44;52.31;102514.44;5075475;28;20029;-43
2022/03/25 09:07:31;;;;;;;104.70;43.28;;;;;;;10.67;51.81;102524.03;5074920;28;20039;-42
2022/03/25 09:09:57;;;;;;;87.35;41.70;;;;;;;10.87;52.32;102531.06;5077056;28;20063;-42
2022/03/25 09:12:23;;;;;;;99.18;45.38;;;;;;;11.12;51.94;102537.66;5075690;28;20058;-42
2022/03/25 09:14:49;;;;;;;105.57;47.42;;;;;;;11.17;51.75;102526.47;5075061;28;20060;-44
2022/03/25 09:17:15;;;;;;;108.47;49.20;;;;;;;11.39;51.37;102542.25;5076193;28;20474;-42
2022/03/25 09:19:42;;;;;;;107.72;47.25;;;;;;;11.59;51.08;102534.94;5076063;28;20043;-42
2022/03/25 09:22:08;;;;;;;107.13;48.58;;;;;;;11.89;50.79;102538.31;5058551;28;20484;-43
2022/03/25 09:24:34;;;;;;;116.25;49.20;;;;;;;12.20;49.84;102540.66;5076231;28;20432;-43
2022/03/25 09:27:00;;;;;;;95.00;44.05;;;;;;;12.73;49.22;102545.19;5076554;28;20112;-45
2022/03/25 09:29:26;;;;;;;108.15;50.15;;;;;;;13.75;47.43;102534.66;5076422;28;20400;-45
2022/03/25 09:31:52;;;;;;;99.20;47.25;;;;;;;14.47;45.33;102518.75;5076288;28;20028;-45
2022/03/25 09:37:03;;;;;;;95.80;45.28;;;;;;;15.38;43.80;102534.84;5061532;28;20068;-45
2022/03/25 09:39:29;;;;;;;94.40;44.20;;;;;;;15.39;44.27;102539.25;5075818;28;20021;-42
2022/03/25 09:41:57;;;;;;;102.45;46.67;;;;;;;15.89;42.94;102542.63;5075775;28;20071;-42
2022/03/25 09:44:23;;;;;;;88.53;43.45;;;;;;;16.49;42.05;102541.03;5075726;28;20036;-43
2022/03/25 09:46:50;;;;;;;95.75;47.28;;;;;;;16.76;41.58;102542.31;5075445;28;20384;-42
2022/03/25 09:49:18;;;;;;;85.88;44.47;;;;;;;17.36;39.93;102543.25;5075580;28;20183;-44
2022/03/25 09:51:44;;;;;;;86.20;42.75;;;;;;;18.12;38.73;102545.69;5075756;28;20060;-43
2022/03/25 09:54:13;;;;;;;73.72;41.00;;;;;;;18.85;37.46;102530.06;5075536;28;20457;-44
2022/03/25 09:56:40;;;;;;;89.13;42.75;;;;;;;19.64;35.89;102531.53;5076256;28;20036;-43
2022/03/25 09:59:06;;;;;;;87.22;44.75;;;;;;;20.19;33.89;102536.13;5074314;28;20021;-45
2022/03/25 10:01:33;;;;;;;85.00;43.78;;;;;;;20.67;33.27;102536.84;5075650;28;20021;-43
2022/03/25 10:03:59;;;;;;;74.82;38.67;;;;;;;21.28;33.44;102540.31;5075035;28;20029;-43
2022/03/25 10:06:24;;;;;;;72.00;37.80;;;;;;;21.56;32.70;102541.94;5073522;28;20021;-43
2022/03/25 10:09:01;;;;;;;70.10;38.25;;;;;;;21.88;31.38;102542.88;5090474;28;20035;-45
2022/03/25 10:11:30;;;;;;;71.43;36.17;;;;;;;21.91;32.36;102528.72;5075309;28;20033;-45
2022/03/25 10:14:19;;;;;;;59.20;36.03;;;;;;;22.29;30.32;102540.72;5075331;28;20032;-45
2022/03/25 10:16:46;;;;;;;71.25;38.38;;;;;;;22.77;31.83;102538.25;5060523;28;20032;-43
2022/03/25 10:19:17;;;;;;;58.97;35.00;;;;;;;23.38;30.72;102522.88;5075621;28;20051;-48
2022/03/25 10:22:05;;;;;;;68.15;38.47;;;;;;;24.05;28.39;102529.41;5075186;28;20418;-43
2022/03/25 10:24:38;;;;;;;64.88;36.95;;;;;;;24.28;27.85;102503.94;5075311;28;20037;-47
2022/03/25 10:27:06;;;;;;;57.25;33.78;;;;;;;24.81;26.78;102519.53;5074815;28;20025;-44
2022/03/25 10:29:32;;;;;;;67.57;35.95;;;;;;;24.97;26.79;102506.16;5074649;28;20078;-45
2022/03/25 10:32:10;;;;;;;66.55;36.20;;;;;;;23.83;26.19;102523.59;5073897;28;20032;-44
2022/03/25 10:34:38;;;;;;;57.10;33.65;;;;;;;24.24;27.80;102508.25;5074678;28;20477;-44
2022/03/25 10:37:06;;;;;;;54.83;33.92;;;;;;;24.37;28.42;102515.41;5074801;28;20048;-43
2022/03/25 10:39:33;;;;;;;57.03;34.38;;;;;;;25.12;27.26;102514.72;5074553;28;20029;-43
2022/03/25 10:42:02;;;;;;;70.20;36.05;;;;;;;25.29;26.15;102510.16;5075341;28;20111;-44
2022/03/25 10:44:38;;;;;;;61.20;35.33;;;;;;;25.47;25.91;102522.09;5073264;28;20032;-44
2022/03/25 10:47:23;;;;;;;50.63;29.95;;;;;;;26.38;23.25;102510.31;5074594;28;20036;-45
2022/03/25 10:49:49;;;;;;;57.92;33.83;;;;;;;26.33;25.34;102507.47;5074771;28;20039;-44
2022/03/25 10:52:27;;;;;;;64.63;32.58;;;;;;;26.82;22.82;102503.03;5073029;28;20407;-45
2022/03/25 10:55:15;;;;;;;50.55;31.27;;;;;;;27.28;21.85;102507.53;5074357;28;20048;-44
2022/03/25 10:57:58;;;;;;;54.60;32.30;;;;;;;26.71;22.24;102512.25;5073991;28;20025;-43
2022/03/25 11:00:26;;;;;;;56.60;30.70;;;;;;;27.36;24.05;102499.66;5075131;28;20029;-44
2022/03/25 11:02:52;;;;;;;53.22;30.75;;;;;;;27.53;22.93;102499.56;5090165;28;20024;-45
2022/03/25 11:05:19;;;;;;;55.75;32.00;;;;;;;27.74;21.92;102494.25;5074598;28;20032;-44
2022/03/25 11:07:47;;;;;;;47.70;28.13;;;;;;;28.07;21.91;102490.47;5073068;28;20346;-45
2022/03/25 11:10:14;;;;;;;54.80;31.17;;;;;;;27.90;22.24;102493.34;5073761;28;20101;-43
2022/03/25 11:12:43;;;;;;;54.53;29.77;;;;;;;28.09;22.34;102485.50;5072945;28;20096;-44
2022/03/25 11:15:10;;;;;;;48.38;27.92;;;;;;;28.63;21.52;102490.09;5074469;28;20031;-45
2022/03/25 11:17:39;;;;;;;48.33;29.50;;;;;;;28.13;21.26;102489.41;5055679;28;20101;-44